sensor_id;sensor_type;location;lat;lon;timestamp;P1;durP1;ratioP1;P2;durP2;ratioP2
76202;SDS011;64985;46.364;17.008;2023-04-24T00:00:03;11.18;;;6.07;;
76202;SDS011;64985;46.364;17.008;2023-04-24T00:03:12;8.18;;;5.93;;
76202;SDS011;64985;46.364;17.008;2023-04-24T00:06:15;9.68;;;6.65;;
76202;SDS011;64985;46.364;17.008;2023-04-24T00:09:18;10.15;;;6.28;;
76202;SDS011;64985;46.364;17.008;2023-04-24T00:12:20;9.70;;;6.65;;
76202;SDS011;64985;46.364;17.008;2023-04-24T00:15:22;8.95;;;6.05;;
76202;SDS011;64985;46.364;17.008;2023-04-24T00:18:24;8.82;;;6.50;;
76202;SDS011;64985;46.364;17.008;2023-04-24T00:21:26;8.07;;;5.78;;
76202;SDS011;64985;46.364;17.008;2023-04-24T00:24:29;8.63;;;6.00;;
76202;SDS011;64985;46.364;17.008;2023-04-24T00:27:31;7.00;;;5.93;;
76202;SDS011;64985;46.364;17.008;2023-04-24T00:30:33;9.18;;;5.43;;
76202;SDS011;64985;46.364;17.008;2023-04-24T00:33:35;8.25;;;6.05;;
76202;SDS011;64985;46.364;17.008;2023-04-24T00:36:37;10.77;;;6.72;;
76202;SDS011;64985;46.364;17.008;2023-04-24T00:39:39;9.15;;;6.70;;
76202;SDS011;64985;46.364;17.008;2023-04-24T00:42:42;10.63;;;7.28;;
76202;SDS011;64985;46.364;17.008;2023-04-24T00:45:45;8.77;;;6.00;;
76202;SDS011;64985;46.364;17.008;2023-04-24T00:48:48;10.10;;;6.90;;
76202;SDS011;64985;46.364;17.008;2023-04-24T00:51:50;11.85;;;8.05;;
76202;SDS011;64985;46.364;17.008;2023-04-24T00:54:52;10.95;;;7.55;;
76202;SDS011;64985;46.364;17.008;2023-04-24T00:57:54;8.98;;;6.88;;
76202;SDS011;64985;46.364;17.008;2023-04-24T01:00:57;10.38;;;6.82;;
76202;SDS011;64985;46.364;17.008;2023-04-24T01:04:00;9.13;;;6.75;;
76202;SDS011;64985;46.364;17.008;2023-04-24T01:07:03;9.20;;;6.88;;
76202;SDS011;64985;46.364;17.008;2023-04-24T01:10:12;9.48;;;6.72;;
76202;SDS011;64985;46.364;17.008;2023-04-24T01:13:15;10.35;;;7.15;;
76202;SDS011;64985;46.364;17.008;2023-04-24T01:16:18;11.10;;;7.13;;
76202;SDS011;64985;46.364;17.008;2023-04-24T01:19:22;13.82;;;6.95;;
76202;SDS011;64985;46.364;17.008;2023-04-24T01:22:24;11.27;;;7.07;;
76202;SDS011;64985;46.364;17.008;2023-04-24T01:25:27;13.80;;;7.88;;
76202;SDS011;64985;46.364;17.008;2023-04-24T01:28:30;11.85;;;7.50;;
76202;SDS011;64985;46.364;17.008;2023-04-24T01:31:32;14.10;;;8.02;;
76202;SDS011;64985;46.364;17.008;2023-04-24T01:34:34;10.70;;;7.82;;
76202;SDS011;64985;46.364;17.008;2023-04-24T01:37:37;10.95;;;8.27;;
76202;SDS011;64985;46.364;17.008;2023-04-24T01:40:39;11.52;;;8.50;;
76202;SDS011;64985;46.364;17.008;2023-04-24T01:43:41;14.23;;;8.20;;
76202;SDS011;64985;46.364;17.008;2023-04-24T01:46:44;15.05;;;9.32;;
76202;SDS011;64985;46.364;17.008;2023-04-24T01:49:46;12.70;;;8.75;;
76202;SDS011;64985;46.364;17.008;2023-04-24T01:52:49;13.32;;;9.05;;
76202;SDS011;64985;46.364;17.008;2023-04-24T01:55:51;13.00;;;8.80;;
76202;SDS011;64985;46.364;17.008;2023-04-24T01:58:53;14.68;;;9.15;;
76202;SDS011;64985;46.364;17.008;2023-04-24T02:01:56;19.17;;;11.10;;
76202;SDS011;64985;46.364;17.008;2023-04-24T02:04:58;13.10;;;9.10;;
76202;SDS011;64985;46.364;17.008;2023-04-24T02:08:01;13.18;;;9.20;;
76202;SDS011;64985;46.364;17.008;2023-04-24T02:11:03;12.40;;;8.82;;
76202;SDS011;64985;46.364;17.008;2023-04-24T02:14:05;13.10;;;8.20;;
76202;SDS011;64985;46.364;17.008;2023-04-24T02:17:07;13.02;;;7.90;;
76202;SDS011;64985;46.364;17.008;2023-04-24T02:20:10;9.85;;;7.43;;
76202;SDS011;64985;46.364;17.008;2023-04-24T02:23:12;15.13;;;7.22;;
76202;SDS011;64985;46.364;17.008;2023-04-24T02:26:15;9.38;;;6.95;;
76202;SDS011;64985;46.364;17.008;2023-04-24T02:29:17;9.73;;;7.15;;
76202;SDS011;64985;46.364;17.008;2023-04-24T02:32:20;10.00;;;7.97;;
76202;SDS011;64985;46.364;17.008;2023-04-24T02:35:22;12.60;;;8.38;;
76202;SDS011;64985;46.364;17.008;2023-04-24T02:38:24;10.30;;;7.43;;
76202;SDS011;64985;46.364;17.008;2023-04-24T02:41:26;13.13;;;8.27;;
76202;SDS011;64985;46.364;17.008;2023-04-24T02:44:33;12.18;;;8.35;;
76202;SDS011;64985;46.364;17.008;2023-04-24T02:47:35;11.88;;;8.07;;
76202;SDS011;64985;46.364;17.008;2023-04-24T02:50:37;11.40;;;8.23;;
76202;SDS011;64985;46.364;17.008;2023-04-24T02:53:39;15.55;;;8.57;;
76202;SDS011;64985;46.364;17.008;2023-04-24T02:56:42;14.98;;;8.60;;
76202;SDS011;64985;46.364;17.008;2023-04-24T02:59:44;11.55;;;8.30;;
76202;SDS011;64985;46.364;17.008;2023-04-24T03:02:47;15.02;;;9.15;;
76202;SDS011;64985;46.364;17.008;2023-04-24T03:05:49;11.52;;;8.82;;
76202;SDS011;64985;46.364;17.008;2023-04-24T03:08:52;12.43;;;8.98;;
76202;SDS011;64985;46.364;17.008;2023-04-24T03:11:55;16.08;;;9.27;;
76202;SDS011;64985;46.364;17.008;2023-04-24T03:14:58;12.27;;;8.98;;
76202;SDS011;64985;46.364;17.008;2023-04-24T03:18:00;12.23;;;9.15;;
76202;SDS011;64985;46.364;17.008;2023-04-24T03:21:02;13.00;;;8.70;;
76202;SDS011;64985;46.364;17.008;2023-04-24T03:24:05;12.45;;;8.20;;
76202;SDS011;64985;46.364;17.008;2023-04-24T03:27:07;9.82;;;7.50;;
76202;SDS011;64985;46.364;17.008;2023-04-24T03:30:09;11.00;;;7.35;;
76202;SDS011;64985;46.364;17.008;2023-04-24T03:33:11;12.65;;;7.15;;
76202;SDS011;64985;46.364;17.008;2023-04-24T03:36:13;10.05;;;7.07;;
76202;SDS011;64985;46.364;17.008;2023-04-24T03:39:16;10.95;;;6.97;;
76202;SDS011;64985;46.364;17.008;2023-04-24T03:42:19;12.77;;;6.85;;
76202;SDS011;64985;46.364;17.008;2023-04-24T03:45:21;9.35;;;7.00;;
76202;SDS011;64985;46.364;17.008;2023-04-24T03:48:23;12.27;;;7.70;;
76202;SDS011;64985;46.364;17.008;2023-04-24T03:51:26;11.82;;;7.47;;
76202;SDS011;64985;46.364;17.008;2023-04-24T03:54:29;10.07;;;7.10;;
76202;SDS011;64985;46.364;17.008;2023-04-24T03:57:31;9.98;;;6.75;;
76202;SDS011;64985;46.364;17.008;2023-04-24T04:00:33;10.23;;;6.78;;
76202;SDS011;64985;46.364;17.008;2023-04-24T04:03:36;9.75;;;7.20;;
76202;SDS011;64985;46.364;17.008;2023-04-24T04:06:38;9.25;;;6.57;;
76202;SDS011;64985;46.364;17.008;2023-04-24T04:09:40;10.48;;;7.00;;
76202;SDS011;64985;46.364;17.008;2023-04-24T04:12:43;8.65;;;6.45;;
76202;SDS011;64985;46.364;17.008;2023-04-24T04:15:45;9.60;;;7.20;;
76202;SDS011;64985;46.364;17.008;2023-04-24T04:18:47;10.40;;;6.93;;
76202;SDS011;64985;46.364;17.008;2023-04-24T04:21:49;9.57;;;6.68;;
76202;SDS011;64985;46.364;17.008;2023-04-24T04:24:54;9.02;;;6.40;;
76202;SDS011;64985;46.364;17.008;2023-04-24T04:27:56;9.63;;;6.40;;
76202;SDS011;64985;46.364;17.008;2023-04-24T04:31:01;10.07;;;6.38;;
76202;SDS011;64985;46.364;17.008;2023-04-24T04:34:03;9.15;;;6.53;;
76202;SDS011;64985;46.364;17.008;2023-04-24T04:37:05;8.77;;;6.43;;
76202;SDS011;64985;46.364;17.008;2023-04-24T04:40:07;12.13;;;7.82;;
76202;SDS011;64985;46.364;17.008;2023-04-24T04:43:13;9.30;;;7.22;;
76202;SDS011;64985;46.364;17.008;2023-04-24T04:46:17;8.60;;;6.13;;
76202;SDS011;64985;46.364;17.008;2023-04-24T04:49:19;8.82;;;6.28;;
76202;SDS011;64985;46.364;17.008;2023-04-24T04:52:23;7.95;;;6.28;;
76202;SDS011;64985;46.364;17.008;2023-04-24T04:55:27;10.98;;;7.20;;
76202;SDS011;64985;46.364;17.008;2023-04-24T04:58:29;8.48;;;6.63;;
76202;SDS011;64985;46.364;17.008;2023-04-24T05:01:32;10.48;;;6.00;;
76202;SDS011;64985;46.364;17.008;2023-04-24T05:04:34;11.13;;;5.95;;
76202;SDS011;64985;46.364;17.008;2023-04-24T05:07:36;10.27;;;6.18;;
76202;SDS011;64985;46.364;17.008;2023-04-24T05:10:38;14.68;;;7.32;;
76202;SDS011;64985;46.364;17.008;2023-04-24T05:13:40;12.73;;;6.68;;
76202;SDS011;64985;46.364;17.008;2023-04-24T05:16:42;15.18;;;7.97;;
76202;SDS011;64985;46.364;17.008;2023-04-24T05:19:45;8.93;;;6.50;;
76202;SDS011;64985;46.364;17.008;2023-04-24T05:22:47;15.85;;;9.07;;
76202;SDS011;64985;46.364;17.008;2023-04-24T05:25:49;8.75;;;6.60;;
76202;SDS011;64985;46.364;17.008;2023-04-24T05:28:52;8.45;;;6.22;;
76202;SDS011;64985;46.364;17.008;2023-04-24T05:31:54;10.00;;;6.55;;
76202;SDS011;64985;46.364;17.008;2023-04-24T05:34:56;11.93;;;7.28;;
76202;SDS011;64985;46.364;17.008;2023-04-24T05:37:58;9.98;;;6.78;;
76202;SDS011;64985;46.364;17.008;2023-04-24T05:41:01;8.80;;;6.47;;
76202;SDS011;64985;46.364;17.008;2023-04-24T05:44:03;12.23;;;7.10;;
76202;SDS011;64985;46.364;17.008;2023-04-24T05:47:06;10.45;;;6.50;;
76202;SDS011;64985;46.364;17.008;2023-04-24T05:50:08;10.05;;;6.75;;
76202;SDS011;64985;46.364;17.008;2023-04-24T05:53:11;9.70;;;6.13;;
76202;SDS011;64985;46.364;17.008;2023-04-24T05:56:13;7.47;;;5.70;;
76202;SDS011;64985;46.364;17.008;2023-04-24T05:59:17;9.48;;;6.28;;
76202;SDS011;64985;46.364;17.008;2023-04-24T06:02:19;9.18;;;6.65;;
76202;SDS011;64985;46.364;17.008;2023-04-24T06:05:21;14.75;;;7.80;;
76202;SDS011;64985;46.364;17.008;2023-04-24T06:08:24;18.73;;;9.32;;
76202;SDS011;64985;46.364;17.008;2023-04-24T06:11:27;15.82;;;9.85;;
76202;SDS011;64985;46.364;17.008;2023-04-24T06:14:29;17.83;;;10.73;;
76202;SDS011;64985;46.364;17.008;2023-04-24T06:17:31;16.73;;;8.48;;
76202;SDS011;64985;46.364;17.008;2023-04-24T06:20:34;14.35;;;7.60;;
76202;SDS011;64985;46.364;17.008;2023-04-24T06:23:37;10.98;;;7.10;;
76202;SDS011;64985;46.364;17.008;2023-04-24T06:26:39;10.35;;;7.00;;
76202;SDS011;64985;46.364;17.008;2023-04-24T06:29:41;8.95;;;6.55;;
76202;SDS011;64985;46.364;17.008;2023-04-24T06:32:44;9.07;;;6.45;;
76202;SDS011;64985;46.364;17.008;2023-04-24T06:35:46;10.45;;;6.80;;
76202;SDS011;64985;46.364;17.008;2023-04-24T06:38:48;9.15;;;6.68;;
76202;SDS011;64985;46.364;17.008;2023-04-24T06:41:50;8.77;;;6.55;;
76202;SDS011;64985;46.364;17.008;2023-04-24T06:44:52;12.88;;;7.63;;
76202;SDS011;64985;46.364;17.008;2023-04-24T06:47:54;14.27;;;7.93;;
76202;SDS011;64985;46.364;17.008;2023-04-24T06:50:57;13.02;;;7.38;;
76202;SDS011;64985;46.364;17.008;2023-04-24T06:53:59;14.02;;;9.00;;
76202;SDS011;64985;46.364;17.008;2023-04-24T06:57:01;14.18;;;7.75;;
76202;SDS011;64985;46.364;17.008;2023-04-24T07:00:04;9.07;;;6.13;;
76202;SDS011;64985;46.364;17.008;2023-04-24T07:03:08;10.52;;;6.40;;
76202;SDS011;64985;46.364;17.008;2023-04-24T07:06:10;10.65;;;6.03;;
76202;SDS011;64985;46.364;17.008;2023-04-24T07:09:12;11.65;;;6.57;;
76202;SDS011;64985;46.364;17.008;2023-04-24T07:12:16;10.02;;;5.68;;
76202;SDS011;64985;46.364;17.008;2023-04-24T07:15:18;9.13;;;5.63;;
76202;SDS011;64985;46.364;17.008;2023-04-24T07:18:21;6.78;;;3.95;;
76202;SDS011;64985;46.364;17.008;2023-04-24T07:21:24;6.40;;;3.75;;
76202;SDS011;64985;46.364;17.008;2023-04-24T07:24:27;7.30;;;4.15;;
76202;SDS011;64985;46.364;17.008;2023-04-24T07:27:30;10.27;;;4.97;;
76202;SDS011;64985;46.364;17.008;2023-04-24T07:30:33;9.65;;;5.22;;
76202;SDS011;64985;46.364;17.008;2023-04-24T07:33:35;6.40;;;4.75;;
76202;SDS011;64985;46.364;17.008;2023-04-24T07:36:37;6.05;;;4.25;;
76202;SDS011;64985;46.364;17.008;2023-04-24T07:39:40;9.52;;;5.20;;
76202;SDS011;64985;46.364;17.008;2023-04-24T07:42:43;9.07;;;4.80;;
76202;SDS011;64985;46.364;17.008;2023-04-24T07:45:45;6.28;;;4.38;;
76202;SDS011;64985;46.364;17.008;2023-04-24T07:48:47;8.40;;;4.43;;
76202;SDS011;64985;46.364;17.008;2023-04-24T07:52:06;7.65;;;4.82;;
76202;SDS011;64985;46.364;17.008;2023-04-24T07:55:08;8.85;;;5.63;;
76202;SDS011;64985;46.364;17.008;2023-04-24T07:58:10;8.05;;;5.30;;
76202;SDS011;64985;46.364;17.008;2023-04-24T08:01:12;7.55;;;5.68;;
76202;SDS011;64985;46.364;17.008;2023-04-24T08:04:14;8.55;;;5.03;;
76202;SDS011;64985;46.364;17.008;2023-04-24T08:07:17;8.93;;;5.70;;
76202;SDS011;64985;46.364;17.008;2023-04-24T08:10:19;14.05;;;6.80;;
76202;SDS011;64985;46.364;17.008;2023-04-24T08:13:22;8.55;;;5.50;;
76202;SDS011;64985;46.364;17.008;2023-04-24T08:16:24;9.98;;;4.85;;
76202;SDS011;64985;46.364;17.008;2023-04-24T08:19:26;14.00;;;6.50;;
76202;SDS011;64985;46.364;17.008;2023-04-24T08:22:28;15.70;;;7.30;;
76202;SDS011;64985;46.364;17.008;2023-04-24T08:25:30;7.25;;;4.90;;
76202;SDS011;64985;46.364;17.008;2023-04-24T08:28:32;7.28;;;4.80;;
76202;SDS011;64985;46.364;17.008;2023-04-24T08:31:35;8.18;;;5.10;;
76202;SDS011;64985;46.364;17.008;2023-04-24T08:34:37;7.45;;;4.68;;
76202;SDS011;64985;46.364;17.008;2023-04-24T08:37:39;9.25;;;4.97;;
76202;SDS011;64985;46.364;17.008;2023-04-24T08:40:41;9.85;;;5.43;;
76202;SDS011;64985;46.364;17.008;2023-04-24T08:43:47;11.32;;;6.00;;
76202;SDS011;64985;46.364;17.008;2023-04-24T08:46:51;20.48;;;7.88;;
76202;SDS011;64985;46.364;17.008;2023-04-24T08:49:55;6.43;;;4.78;;
76202;SDS011;64985;46.364;17.008;2023-04-24T08:53:00;8.68;;;4.70;;
76202;SDS011;64985;46.364;17.008;2023-04-24T08:56:05;6.53;;;4.28;;
76202;SDS011;64985;46.364;17.008;2023-04-24T08:59:08;8.07;;;4.40;;
76202;SDS011;64985;46.364;17.008;2023-04-24T09:02:11;21.25;;;7.88;;
76202;SDS011;64985;46.364;17.008;2023-04-24T09:05:16;7.63;;;4.72;;
76202;SDS011;64985;46.364;17.008;2023-04-24T09:08:19;6.85;;;4.60;;
76202;SDS011;64985;46.364;17.008;2023-04-24T09:11:23;10.98;;;5.85;;
76202;SDS011;64985;46.364;17.008;2023-04-24T09:14:31;9.90;;;4.50;;
76202;SDS011;64985;46.364;17.008;2023-04-24T09:17:33;10.32;;;5.25;;
76202;SDS011;64985;46.364;17.008;2023-04-24T09:24:03;7.65;;;4.88;;
76202;SDS011;64985;46.364;17.008;2023-04-24T09:27:10;9.35;;;4.10;;
76202;SDS011;64985;46.364;17.008;2023-04-24T09:30:14;6.72;;;3.95;;
76202;SDS011;64985;46.364;17.008;2023-04-24T09:33:24;8.85;;;4.00;;
76202;SDS011;64985;46.364;17.008;2023-04-24T09:36:26;7.40;;;3.90;;
76202;SDS011;64985;46.364;17.008;2023-04-24T09:39:38;5.93;;;3.67;;
76202;SDS011;64985;46.364;17.008;2023-04-24T09:45:54;6.28;;;3.70;;
76202;SDS011;64985;46.364;17.008;2023-04-24T09:49:03;8.48;;;4.28;;
76202;SDS011;64985;46.364;17.008;2023-04-24T09:52:14;9.95;;;3.88;;
76202;SDS011;64985;46.364;17.008;2023-04-24T09:55:18;5.78;;;4.05;;
76202;SDS011;64985;46.364;17.008;2023-04-24T09:58:24;8.68;;;4.45;;
76202;SDS011;64985;46.364;17.008;2023-04-24T10:01:31;6.88;;;4.38;;
76202;SDS011;64985;46.364;17.008;2023-04-24T10:04:34;9.02;;;5.20;;
76202;SDS011;64985;46.364;17.008;2023-04-24T10:07:37;11.88;;;5.13;;
76202;SDS011;64985;46.364;17.008;2023-04-24T10:10:43;8.38;;;5.47;;
76202;SDS011;64985;46.364;17.008;2023-04-24T10:13:46;8.38;;;5.20;;
76202;SDS011;64985;46.364;17.008;2023-04-24T10:16:49;8.43;;;5.13;;
76202;SDS011;64985;46.364;17.008;2023-04-24T10:19:54;9.45;;;5.10;;
76202;SDS011;64985;46.364;17.008;2023-04-24T10:22:57;9.02;;;6.00;;
76202;SDS011;64985;46.364;17.008;2023-04-24T10:26:00;10.77;;;5.32;;
76202;SDS011;64985;46.364;17.008;2023-04-24T10:29:03;8.23;;;5.35;;
76202;SDS011;64985;46.364;17.008;2023-04-24T10:32:11;8.82;;;5.68;;
76202;SDS011;64985;46.364;17.008;2023-04-24T10:35:14;9.82;;;5.63;;
76202;SDS011;64985;46.364;17.008;2023-04-24T10:38:18;7.72;;;5.68;;
76202;SDS011;64985;46.364;17.008;2023-04-24T10:41:26;11.20;;;5.40;;
76202;SDS011;64985;46.364;17.008;2023-04-24T10:44:35;8.70;;;5.45;;
76202;SDS011;64985;46.364;17.008;2023-04-24T10:47:41;7.43;;;5.50;;
76202;SDS011;64985;46.364;17.008;2023-04-24T10:50:45;8.68;;;5.90;;
76202;SDS011;64985;46.364;17.008;2023-04-24T10:53:51;9.23;;;5.72;;
76202;SDS011;64985;46.364;17.008;2023-04-24T10:57:25;10.50;;;6.15;;
76202;SDS011;64985;46.364;17.008;2023-04-24T11:03:29;12.63;;;6.57;;
76202;SDS011;64985;46.364;17.008;2023-04-24T11:06:37;12.18;;;6.95;;
76202;SDS011;64985;46.364;17.008;2023-04-24T11:09:39;9.82;;;5.60;;
76202;SDS011;64985;46.364;17.008;2023-04-24T11:12:45;7.07;;;5.45;;
76202;SDS011;64985;46.364;17.008;2023-04-24T11:16:11;8.40;;;5.60;;
76202;SDS011;64985;46.364;17.008;2023-04-24T11:19:31;7.05;;;5.45;;
76202;SDS011;64985;46.364;17.008;2023-04-24T11:22:36;6.57;;;5.22;;
76202;SDS011;64985;46.364;17.008;2023-04-24T11:25:41;6.15;;;5.25;;
76202;SDS011;64985;46.364;17.008;2023-04-24T11:28:45;8.88;;;5.13;;
76202;SDS011;64985;46.364;17.008;2023-04-24T11:31:52;8.90;;;5.05;;
76202;SDS011;64985;46.364;17.008;2023-04-24T11:38:00;10.57;;;6.63;;
76202;SDS011;64985;46.364;17.008;2023-04-24T11:41:24;10.05;;;6.80;;
76202;SDS011;64985;46.364;17.008;2023-04-24T11:44:27;7.80;;;5.75;;
76202;SDS011;64985;46.364;17.008;2023-04-24T11:47:31;7.82;;;5.47;;
76202;SDS011;64985;46.364;17.008;2023-04-24T11:50:35;9.50;;;6.35;;
76202;SDS011;64985;46.364;17.008;2023-04-24T11:53:37;19.00;;;7.60;;
76202;SDS011;64985;46.364;17.008;2023-04-24T11:56:39;15.68;;;7.20;;
76202;SDS011;64985;46.364;17.008;2023-04-24T11:59:48;17.45;;;8.32;;
76202;SDS011;64985;46.364;17.008;2023-04-24T12:02:50;11.27;;;6.60;;
76202;SDS011;64985;46.364;17.008;2023-04-24T12:06:03;10.63;;;6.43;;
76202;SDS011;64985;46.364;17.008;2023-04-24T12:09:08;7.63;;;5.15;;
76202;SDS011;64985;46.364;17.008;2023-04-24T12:12:19;8.55;;;5.32;;
76202;SDS011;64985;46.364;17.008;2023-04-24T12:15:21;9.80;;;5.32;;
76202;SDS011;64985;46.364;17.008;2023-04-24T12:18:23;10.02;;;5.45;;
76202;SDS011;64985;46.364;17.008;2023-04-24T12:21:25;8.07;;;5.70;;
76202;SDS011;64985;46.364;17.008;2023-04-24T12:24:30;7.88;;;6.13;;
76202;SDS011;64985;46.364;17.008;2023-04-24T12:27:32;7.05;;;5.50;;
76202;SDS011;64985;46.364;17.008;2023-04-24T12:30:38;8.75;;;6.13;;
76202;SDS011;64985;46.364;17.008;2023-04-24T12:33:50;9.35;;;5.88;;
76202;SDS011;64985;46.364;17.008;2023-04-24T12:36:52;12.73;;;7.00;;
76202;SDS011;64985;46.364;17.008;2023-04-24T12:40:01;9.40;;;5.97;;
76202;SDS011;64985;46.364;17.008;2023-04-24T12:43:13;10.60;;;6.13;;
76202;SDS011;64985;46.364;17.008;2023-04-24T12:46:17;7.82;;;5.97;;
76202;SDS011;64985;46.364;17.008;2023-04-24T12:49:22;9.10;;;5.55;;
76202;SDS011;64985;46.364;17.008;2023-04-24T12:52:25;10.15;;;6.30;;
76202;SDS011;64985;46.364;17.008;2023-04-24T12:55:29;9.00;;;5.85;;
76202;SDS011;64985;46.364;17.008;2023-04-24T12:58:31;7.45;;;6.20;;
76202;SDS011;64985;46.364;17.008;2023-04-24T13:01:34;8.05;;;6.53;;
76202;SDS011;64985;46.364;17.008;2023-04-24T13:04:36;8.35;;;6.80;;
76202;SDS011;64985;46.364;17.008;2023-04-24T13:07:39;8.93;;;6.50;;
76202;SDS011;64985;46.364;17.008;2023-04-24T13:10:41;16.02;;;9.27;;
76202;SDS011;64985;46.364;17.008;2023-04-24T13:13:44;12.48;;;8.45;;
76202;SDS011;64985;46.364;17.008;2023-04-24T13:16:46;13.85;;;7.78;;
76202;SDS011;64985;46.364;17.008;2023-04-24T13:19:49;9.48;;;7.45;;
76202;SDS011;64985;46.364;17.008;2023-04-24T13:22:53;13.20;;;8.07;;
76202;SDS011;64985;46.364;17.008;2023-04-24T13:25:55;11.13;;;7.70;;
76202;SDS011;64985;46.364;17.008;2023-04-24T13:28:59;12.20;;;7.75;;
76202;SDS011;64985;46.364;17.008;2023-04-24T13:32:02;11.88;;;7.40;;
76202;SDS011;64985;46.364;17.008;2023-04-24T13:35:04;8.25;;;6.72;;
76202;SDS011;64985;46.364;17.008;2023-04-24T13:38:07;15.68;;;9.27;;
76202;SDS011;64985;46.364;17.008;2023-04-24T13:41:12;9.55;;;6.82;;
76202;SDS011;64985;46.364;17.008;2023-04-24T13:44:15;12.32;;;8.25;;
76202;SDS011;64985;46.364;17.008;2023-04-24T13:47:18;9.32;;;5.97;;
76202;SDS011;64985;46.364;17.008;2023-04-24T13:50:20;10.68;;;6.72;;
76202;SDS011;64985;46.364;17.008;2023-04-24T13:53:23;10.20;;;6.65;;
76202;SDS011;64985;46.364;17.008;2023-04-24T13:56:25;8.80;;;6.40;;
76202;SDS011;64985;46.364;17.008;2023-04-24T13:59:28;10.13;;;6.60;;
76202;SDS011;64985;46.364;17.008;2023-04-24T14:02:30;11.10;;;7.05;;
76202;SDS011;64985;46.364;17.008;2023-04-24T14:05:32;7.82;;;5.30;;
76202;SDS011;64985;46.364;17.008;2023-04-24T14:08:34;9.35;;;6.32;;
76202;SDS011;64985;46.364;17.008;2023-04-24T14:11:36;6.28;;;4.95;;
76202;SDS011;64985;46.364;17.008;2023-04-24T14:14:39;6.72;;;4.78;;
76202;SDS011;64985;46.364;17.008;2023-04-24T14:17:41;7.05;;;5.40;;
76202;SDS011;64985;46.364;17.008;2023-04-24T14:20:44;7.50;;;4.57;;
76202;SDS011;64985;46.364;17.008;2023-04-24T14:23:46;6.30;;;5.10;;
76202;SDS011;64985;46.364;17.008;2023-04-24T14:26:48;8.93;;;4.82;;
76202;SDS011;64985;46.364;17.008;2023-04-24T14:29:51;7.40;;;4.30;;
76202;SDS011;64985;46.364;17.008;2023-04-24T14:32:53;6.30;;;4.75;;
76202;SDS011;64985;46.364;17.008;2023-04-24T14:35:55;10.07;;;4.82;;
76202;SDS011;64985;46.364;17.008;2023-04-24T14:38:58;8.13;;;5.45;;
76202;SDS011;64985;46.364;17.008;2023-04-24T14:42:00;7.50;;;5.40;;
76202;SDS011;64985;46.364;17.008;2023-04-24T14:45:03;6.47;;;5.10;;
76202;SDS011;64985;46.364;17.008;2023-04-24T14:48:05;5.72;;;5.00;;
76202;SDS011;64985;46.364;17.008;2023-04-24T14:51:07;7.60;;;6.18;;
76202;SDS011;64985;46.364;17.008;2023-04-24T14:54:09;8.93;;;5.70;;
76202;SDS011;64985;46.364;17.008;2023-04-24T14:57:12;9.60;;;6.68;;
76202;SDS011;64985;46.364;17.008;2023-04-24T15:00:17;7.50;;;6.30;;
76202;SDS011;64985;46.364;17.008;2023-04-24T15:03:19;7.45;;;6.40;;
76202;SDS011;64985;46.364;17.008;2023-04-24T15:06:23;8.13;;;6.25;;
76202;SDS011;64985;46.364;17.008;2023-04-24T15:09:26;8.02;;;6.40;;
76202;SDS011;64985;46.364;17.008;2023-04-24T15:12:28;10.82;;;7.53;;
76202;SDS011;64985;46.364;17.008;2023-04-24T15:15:31;9.85;;;8.15;;
76202;SDS011;64985;46.364;17.008;2023-04-24T15:18:33;12.70;;;8.50;;
76202;SDS011;64985;46.364;17.008;2023-04-24T15:21:36;11.93;;;7.72;;
76202;SDS011;64985;46.364;17.008;2023-04-24T15:24:39;10.63;;;7.90;;
76202;SDS011;64985;46.364;17.008;2023-04-24T15:27:42;9.60;;;7.85;;
76202;SDS011;64985;46.364;17.008;2023-04-24T15:30:45;12.70;;;9.18;;
76202;SDS011;64985;46.364;17.008;2023-04-24T15:33:47;11.23;;;8.52;;
76202;SDS011;64985;46.364;17.008;2023-04-24T15:36:51;11.30;;;8.38;;
76202;SDS011;64985;46.364;17.008;2023-04-24T15:39:53;11.07;;;8.68;;
76202;SDS011;64985;46.364;17.008;2023-04-24T15:42:55;13.43;;;10.10;;
76202;SDS011;64985;46.364;17.008;2023-04-24T15:45:57;19.00;;;12.30;;
76202;SDS011;64985;46.364;17.008;2023-04-24T15:48:59;16.27;;;11.35;;
76202;SDS011;64985;46.364;17.008;2023-04-24T15:52:01;13.88;;;10.35;;
76202;SDS011;64985;46.364;17.008;2023-04-24T15:55:04;13.63;;;10.38;;
76202;SDS011;64985;46.364;17.008;2023-04-24T15:58:07;17.00;;;11.93;;
76202;SDS011;64985;46.364;17.008;2023-04-24T16:01:09;8.40;;;6.10;;
76202;SDS011;64985;46.364;17.008;2023-04-24T16:04:12;6.13;;;3.00;;
76202;SDS011;64985;46.364;17.008;2023-04-24T16:07:14;10.68;;;7.05;;
76202;SDS011;64985;46.364;17.008;2023-04-24T16:10:18;9.98;;;5.00;;
76202;SDS011;64985;46.364;17.008;2023-04-24T16:13:21;6.07;;;3.67;;
76202;SDS011;64985;46.364;17.008;2023-04-24T16:16:23;4.15;;;2.22;;
76202;SDS011;64985;46.364;17.008;2023-04-24T16:19:25;7.68;;;3.85;;
76202;SDS011;64985;46.364;17.008;2023-04-24T16:22:28;12.55;;;7.55;;
76202;SDS011;64985;46.364;17.008;2023-04-24T16:25:31;14.75;;;7.53;;
76202;SDS011;64985;46.364;17.008;2023-04-24T16:28:33;13.00;;;7.40;;
76202;SDS011;64985;46.364;17.008;2023-04-24T16:31:36;9.50;;;4.97;;
76202;SDS011;64985;46.364;17.008;2023-04-24T16:34:38;7.25;;;3.35;;
76202;SDS011;64985;46.364;17.008;2023-04-24T16:37:40;4.32;;;2.70;;
76202;SDS011;64985;46.364;17.008;2023-04-24T16:40:43;5.05;;;1.92;;
76202;SDS011;64985;46.364;17.008;2023-04-24T16:43:46;4.05;;;2.78;;
76202;SDS011;64985;46.364;17.008;2023-04-24T16:46:48;3.45;;;1.45;;
76202;SDS011;64985;46.364;17.008;2023-04-24T16:49:51;2.22;;;1.50;;
76202;SDS011;64985;46.364;17.008;2023-04-24T16:52:53;3.40;;;1.00;;
76202;SDS011;64985;46.364;17.008;2023-04-24T16:55:55;1.80;;;1.20;;
76202;SDS011;64985;46.364;17.008;2023-04-24T16:58:57;3.88;;;1.15;;
76202;SDS011;64985;46.364;17.008;2023-04-24T17:02:00;1.42;;;1.10;;
76202;SDS011;64985;46.364;17.008;2023-04-24T17:05:02;1.52;;;1.30;;
76202;SDS011;64985;46.364;17.008;2023-04-24T17:08:05;1.55;;;1.30;;
76202;SDS011;64985;46.364;17.008;2023-04-24T17:11:07;3.00;;;1.38;;
76202;SDS011;64985;46.364;17.008;2023-04-24T17:14:11;3.03;;;1.20;;
76202;SDS011;64985;46.364;17.008;2023-04-24T17:17:14;3.30;;;2.03;;
76202;SDS011;64985;46.364;17.008;2023-04-24T17:20:17;5.95;;;1.90;;
76202;SDS011;64985;46.364;17.008;2023-04-24T17:23:23;21.90;;;8.65;;
76202;SDS011;64985;46.364;17.008;2023-04-24T17:26:27;5.93;;;3.45;;
76202;SDS011;64985;46.364;17.008;2023-04-24T17:29:29;4.00;;;2.35;;
76202;SDS011;64985;46.364;17.008;2023-04-24T17:32:33;5.70;;;3.40;;
76202;SDS011;64985;46.364;17.008;2023-04-24T17:35:36;5.53;;;3.42;;
76202;SDS011;64985;46.364;17.008;2023-04-24T17:38:39;8.63;;;4.35;;
76202;SDS011;64985;46.364;17.008;2023-04-24T17:41:43;13.75;;;8.18;;
76202;SDS011;64985;46.364;17.008;2023-04-24T17:44:45;11.07;;;5.97;;
76202;SDS011;64985;46.364;17.008;2023-04-24T17:47:48;14.85;;;8.20;;
76202;SDS011;64985;46.364;17.008;2023-04-24T17:50:52;20.58;;;10.98;;
76202;SDS011;64985;46.364;17.008;2023-04-24T17:53:57;13.45;;;7.80;;
76202;SDS011;64985;46.364;17.008;2023-04-24T17:57:08;13.93;;;8.27;;
76202;SDS011;64985;46.364;17.008;2023-04-24T18:00:11;15.63;;;8.88;;
76202;SDS011;64985;46.364;17.008;2023-04-24T18:03:14;14.68;;;9.32;;
76202;SDS011;64985;46.364;17.008;2023-04-24T18:06:17;13.88;;;8.40;;
76202;SDS011;64985;46.364;17.008;2023-04-24T18:09:21;12.73;;;8.35;;
76202;SDS011;64985;46.364;17.008;2023-04-24T18:12:24;14.85;;;8.32;;